Time;durP1;ratioP1;P1;durP2;ratioP2;P2;SDS_P1;SDS_P2;PMS_P1;PMS_P2;Temp;Humidity;BMP_temperature;BMP_pressure;BME280_temperature;BME280_humidity;BME280_pressure;Samples;Min_cycle;Max_cycle;Signal;HPM_P1;HPM_P2
2022/01/25 00:24:19;;;;;;;24.90;14.38;;;7.80;98.90;;;;;;5051705;28;20032;-66
2022/01/25 00:26:46;;;;;;;23.40;13.35;;;7.90;98.90;;;;;;5056735;28;20127;-66
2022/01/25 00:29:28;;;;;;;24.85;14.07;;;7.80;98.80;;;;;;5071070;28;20124;-66
2022/01/25 00:31:53;;;;;;;27.15;15.10;;;7.80;98.90;;;;;;5067123;28;20115;-66
2022/01/25 00:34:19;;;;;;;23.45;13.85;;;7.70;98.70;;;;;;5070812;28;20107;-66
2022/01/25 00:36:45;;;;;;;22.08;13.07;;;7.70;98.80;;;;;;5069346;28;20460;-66
2022/01/25 00:39:10;;;;;;;24.35;13.73;;;7.70;98.90;;;;;;5070961;28;20468;-66
2022/01/25 00:41:36;;;;;;;23.77;13.63;;;7.70;98.90;;;;;;5070098;28;20463;-66
2022/01/25 00:44:02;;;;;;;19.98;12.02;;;7.80;98.90;;;;;;5072035;28;20029;-66
2022/01/25 00:46:29;;;;;;;24.02;13.45;;;7.80;98.90;;;;;;5070264;28;20029;-65
2022/01/25 00:49:00;;;;;;;22.27;12.45;;;7.90;98.90;;;;;;5054455;28;20117;-65
2022/01/25 00:54:02;;;;;;;23.40;13.07;;;8.00;98.90;;;;;;5054311;28;20033;-66
2022/01/25 00:56:31;;;;;;;19.15;10.60;;;7.80;98.80;;;;;;5064705;28;20017;-66
2022/01/25 00:59:04;;;;;;;18.75;10.13;;;7.80;98.70;;;;;;5054552;28;20031;-66
2022/01/25 01:01:30;;;;;;;18.38;10.70;;;7.90;98.70;;;;;;5058020;28;20052;-66
2022/01/25 01:03:56;;;;;;;18.10;10.65;;;7.90;98.60;;;;;;5074194;28;20089;-66
2022/01/25 01:06:22;;;;;;;20.20;10.68;;;7.90;98.60;;;;;;5065028;28;20029;-66
2022/01/25 01:08:48;;;;;;;18.58;11.48;;;7.90;98.60;;;;;;5072639;28;20028;-67
2022/01/25 01:11:21;;;;;;;18.10;10.65;;;7.80;98.50;;;;;;5072498;28;20036;-66
2022/01/25 01:16:43;;;;;;;20.48;11.45;;;7.90;98.60;;;;;;5070819;28;20038;-65
2022/01/25 01:33:04;;;;;;;20.38;11.45;;;7.70;98.60;;;;;;5070937;28;20564;-66
2022/01/25 01:38:22;;;;;;;21.07;11.87;;;7.60;98.70;;;;;;5069711;28;20400;-66
2022/01/25 01:48:48;;;;;;;26.13;14.27;;;7.50;98.80;;;;;;5053429;28;20051;-66
2022/01/25 01:51:25;;;;;;;23.58;13.02;;;7.50;98.80;;;;;;5057527;28;20645;-66
2022/01/25 01:53:52;;;;;;;25.23;13.98;;;7.50;98.80;;;;;;5052689;28;20495;-66
2022/01/25 01:56:18;;;;;;;27.08;14.48;;;7.40;98.90;;;;;;5068073;28;20434;-67
2022/01/25 01:58:43;;;;;;;22.23;13.13;;;7.40;98.90;;;;;;5064739;28;20024;-66
2022/01/25 02:01:13;;;;;;;23.65;14.25;;;7.50;98.80;;;;;;5072078;28;20048;-66
2022/01/25 02:03:39;;;;;;;25.73;14.23;;;7.40;98.70;;;;;;5057197;28;20074;-66
2022/01/25 02:06:05;;;;;;;23.42;13.73;;;7.50;98.80;;;;;;5053255;28;20783;-66
2022/01/25 02:08:30;;;;;;;26.98;13.70;;;7.40;98.80;;;;;;5058806;28;20033;-67
2022/01/25 02:10:56;;;;;;;23.23;13.02;;;7.40;98.70;;;;;;5064522;28;20402;-66
2022/01/25 02:13:22;;;;;;;25.73;14.30;;;7.40;98.80;;;;;;5060225;28;20044;-66
2022/01/25 02:15:49;;;;;;;21.92;13.13;;;7.50;98.80;;;;;;5052805;28;20071;-66
2022/01/25 02:23:41;;;;;;;21.88;12.98;;;7.50;98.70;;;;;;5053180;28;20163;-66
2022/01/25 02:26:08;;;;;;;27.13;15.10;;;7.40;98.70;;;;;;5054341;28;20473;-66
2022/01/25 02:28:36;;;;;;;26.17;13.77;;;7.40;98.60;;;;;;5061462;28;20553;-66
2022/01/25 02:31:03;;;;;;;26.38;14.70;;;7.30;98.60;;;;;;5053542;28;20024;-66
2022/01/25 02:33:30;;;;;;;27.13;13.43;;;7.10;98.40;;;;;;5052712;28;20060;-66
2022/01/25 02:35:56;;;;;;;27.20;14.25;;;7.10;98.60;;;;;;5054745;28;20078;-67
2022/01/25 02:38:29;;;;;;;28.55;14.77;;;7.10;98.70;;;;;;5053840;28;20063;-66
2022/01/25 02:40:57;;;;;;;27.67;14.98;;;6.90;98.70;;;;;;5071475;28;20028;-66
2022/01/25 02:43:24;;;;;;;26.88;15.68;;;6.90;98.80;;;;;;5071843;28;20144;-66
2022/01/25 02:46:07;;;;;;;29.38;14.55;;;6.80;98.90;;;;;;5072297;28;20107;-65
2022/01/25 02:48:59;;;;;;;28.85;15.00;;;6.90;98.90;;;;;;5052275;28;20128;-66
2022/01/25 02:51:34;;;;;;;28.88;14.73;;;6.80;98.90;;;;;;5053540;28;20044;-66
2022/01/25 02:54:01;;;;;;;29.88;15.90;;;6.90;98.90;;;;;;5051796;28;20540;-66
2022/01/25 02:56:28;;;;;;;27.67;14.85;;;6.90;98.90;;;;;;5058957;28;20029;-66
2022/01/25 02:58:55;;;;;;;32.17;16.80;;;6.90;98.90;;;;;;5033960;28;20037;-66
2022/01/25 03:01:21;;;;;;;30.70;15.73;;;6.90;98.90;;;;;;5060781;28;20055;-66
2022/01/25 03:03:47;;;;;;;26.02;14.90;;;7.00;98.90;;;;;;5070663;28;20588;-66
2022/01/25 03:06:18;;;;;;;31.25;16.98;;;7.00;99.00;;;;;;5061049;28;20476;-66
2022/01/25 03:08:45;;;;;;;35.15;17.08;;;6.90;98.90;;;;;;5051839;28;20036;-66
2022/01/25 03:11:10;;;;;;;30.40;15.20;;;6.90;99.00;;;;;;5060639;28;20352;-66
2022/01/25 03:13:48;;;;;;;34.65;17.00;;;6.90;99.00;;;;;;5071858;28;20035;-66
2022/01/25 03:16:21;;;;;;;32.13;16.02;;;6.90;98.90;;;;;;5059847;28;20029;-66
2022/01/25 03:18:48;;;;;;;28.05;15.15;;;6.90;98.90;;;;;;5053307;28;20063;-65
2022/01/25 03:21:32;;;;;;;33.58;17.30;;;6.90;98.90;;;;;;5062788;28;20029;-65
2022/01/25 03:23:58;;;;;;;32.97;15.85;;;6.70;98.70;;;;;;5071252;28;20033;-65
2022/01/25 03:26:25;;;;;;;33.15;15.48;;;6.70;98.70;;;;;;5069812;28;20124;-66
2022/01/25 03:28:52;;;;;;;30.02;15.18;;;6.70;98.70;;;;;;5069630;28;20074;-65
2022/01/25 03:31:17;;;;;;;30.40;14.70;;;6.80;98.70;;;;;;5064618;28;20062;-66
2022/01/25 03:33:43;;;;;;;30.27;16.02;;;6.80;98.70;;;;;;5070635;28;20033;-66
2022/01/25 03:36:10;;;;;;;33.17;15.95;;;6.80;98.60;;;;;;5065610;28;20024;-66
2022/01/25 03:38:37;;;;;;;31.52;15.65;;;6.80;98.60;;;;;;5051503;28;20487;-66
2022/01/25 03:41:05;;;;;;;36.97;17.60;;;6.70;98.50;;;;;;5059711;28;20024;-66
2022/01/25 03:43:30;;;;;;;35.83;16.95;;;6.70;98.50;;;;;;5071089;28;20072;-66
2022/01/25 03:46:12;;;;;;;31.35;14.98;;;6.60;98.60;;;;;;5069898;28;20060;-66
2022/01/25 03:51:21;;;;;;;38.88;17.83;;;6.70;98.60;;;;;;5057464;28;20121;-66
2022/01/25 03:53:47;;;;;;;38.90;19.27;;;6.70;98.60;;;;;;5052595;28;20124;-66
2022/01/25 03:56:13;;;;;;;34.85;16.27;;;6.80;98.50;;;;;;5059596;28;20048;-66
2022/01/25 03:58:38;;;;;;;35.33;16.90;;;6.70;98.30;;;;;;5057490;28;20036;-66
2022/01/25 04:01:04;;;;;;;36.25;18.38;;;6.70;98.50;;;;;;5059953;28;20103;-66
2022/01/25 04:03:36;;;;;;;31.70;16.33;;;6.60;98.40;;;;;;5032698;28;20021;-66
2022/01/25 04:06:02;;;;;;;32.30;17.52;;;6.60;98.40;;;;;;5067752;28;20082;-66
2022/01/25 04:08:28;;;;;;;30.65;15.85;;;6.60;98.50;;;;;;5069960;28;20085;-67
2022/01/25 04:10:54;;;;;;;29.70;14.52;;;6.70;98.60;;;;;;5059844;28;20033;-66
2022/01/25 04:13:19;;;;;;;31.33;14.63;;;6.70;98.50;;;;;;5050797;28;20033;-66
2022/01/25 04:15:46;;;;;;;29.65;14.02;;;6.70;98.50;;;;;;5060281;28;20036;-67
2022/01/25 04:18:28;;;;;;;27.25;14.20;;;6.80;98.40;;;;;;5077646;28;20396;-66
2022/01/25 04:20:59;;;;;;;30.50;14.60;;;6.80;98.30;;;;;;5075391;28;20119;-66
2022/01/25 04:26:09;;;;;;;28.10;13.68;;;6.80;98.20;;;;;;5067198;28;20081;-66
2022/01/25 04:28:34;;;;;;;22.48;11.68;;;6.90;98.10;;;;;;5076639;28;20048;-66
2022/01/25 04:31:00;;;;;;;30.02;13.95;;;6.90;98.10;;;;;;5058113;28;20035;-67
2022/01/25 04:33:38;;;;;;;23.23;11.82;;;6.90;98.10;;;;;;5076966;28;20043;-66
2022/01/25 04:49:51;;;;;;;25.75;12.80;;;7.10;97.90;;;;;;5067500;28;20032;-66
2022/01/25 04:52:20;;;;;;;25.80;12.73;;;7.10;97.90;;;;;;5059798;28;20032;-67
2022/01/25 04:54:57;;;;;;;29.63;13.68;;;7.10;97.80;;;;;;5066547;28;20441;-66
2022/01/25 04:57:36;;;;;;;29.13;12.82;;;7.10;97.70;;;;;;5057377;28;20035;-66
2022/01/25 05:00:10;;;;;;;23.92;13.27;;;7.20;97.80;;;;;;5068411;28;20070;-67
2022/01/25 05:03:04;;;;;;;23.10;11.75;;;7.20;97.70;;;;;;5076497;28;20075;-66
2022/01/25 05:05:34;;;;;;;26.05;12.95;;;7.20;97.60;;;;;;5062227;28;20032;-66
2022/01/25 05:08:33;;;;;;;25.67;12.77;;;7.20;97.60;;;;;;5077314;28;20063;-67
2022/01/25 05:13:50;;;;;;;23.05;12.25;;;7.20;97.60;;;;;;5051479;28;20047;-66
2022/01/25 05:16:28;;;;;;;25.27;11.93;;;7.20;97.50;;;;;;5040143;28;20037;-66
2022/01/25 05:22:04;;;;;;;24.85;11.90;;;7.20;97.50;;;;;;5057303;28;20126;-67
2022/01/25 05:22:06;;;;;;;25.75;12.60;;;7.20;97.50;;;;;;5050950;28;20029;-67
2022/01/25 05:24:39;;;;;;;27.17;13.13;;;7.20;97.50;;;;;;5073562;28;20059;-67
2022/01/25 05:27:05;;;;;;;28.88;13.55;;;7.30;97.50;;;;;;5055690;28;20029;-67
2022/01/25 05:29:31;;;;;;;25.85;12.25;;;7.20;97.40;;;;;;5053600;28;20483;-67
2022/01/25 05:31:57;;;;;;;27.50;13.52;;;7.20;97.40;;;;;;5069526;28;20103;-67
2022/01/25 05:34:22;;;;;;;24.92;11.98;;;7.20;97.40;;;;;;5069258;28;20029;-67
2022/01/25 05:36:48;;;;;;;23.88;12.02;;;7.30;97.50;;;;;;5053943;28;20029;-67
2022/01/25 05:39:18;;;;;;;24.95;12.27;;;7.30;97.50;;;;;;5054256;28;20107;-66
2022/01/25 05:41:53;;;;;;;25.60;13.05;;;7.30;97.40;;;;;;5068265;28;20040;-67
2022/01/25 05:47:03;;;;;;;25.50;13.43;;;7.30;97.30;;;;;;5068292;28;20040;-66
2022/01/25 05:49:29;;;;;;;26.77;12.73;;;7.30;97.30;;;;;;5051660;28;20083;-66
2022/01/25 05:51:54;;;;;;;25.08;12.65;;;7.20;97.30;;;;;;5056547;28;20099;-66
2022/01/25 05:54:20;;;;;;;22.80;11.48;;;7.20;97.30;;;;;;5067497;28;20459;-67
2022/01/25 05:56:45;;;;;;;29.30;12.85;;;7.20;97.30;;;;;;5056785;28;20029;-67
2022/01/25 05:59:11;;;;;;;21.92;11.40;;;7.20;97.20;;;;;;5053774;28;20056;-67
2022/01/25 06:01:36;;;;;;;27.13;12.82;;;7.20;97.30;;;;;;5057004;28;20384;-67
2022/01/25 06:04:03;;;;;;;24.30;12.45;;;7.20;97.30;;;;;;5054541;28;20017;-67
2022/01/25 06:06:29;;;;;;;27.35;14.23;;;7.20;97.50;;;;;;5065273;28;20029;-66
2022/01/25 06:08:55;;;;;;;23.48;11.60;;;7.20;97.10;;;;;;5071556;28;20081;-66
2022/01/25 06:11:22;;;;;;;25.60;12.00;;;7.20;97.10;;;;;;5072268;28;20462;-66
2022/01/25 06:13:47;;;;;;;19.85;11.30;;;7.20;97.10;;;;;;5071661;28;20533;-66
2022/01/25 06:16:13;;;;;;;25.73;11.75;;;7.20;97.20;;;;;;5071670;28;20032;-66
2022/01/25 06:18:39;;;;;;;24.00;11.77;;;7.20;97.10;;;;;;5072647;28;20082;-66
2022/01/25 06:21:04;;;;;;;23.55;11.95;;;7.20;97.00;;;;;;5062079;28;20029;-66
2022/01/25 06:23:30;;;;;;;22.88;11.23;;;7.20;97.10;;;;;;5071397;28;20028;-66
2022/01/25 06:25:56;;;;;;;25.25;12.60;;;7.20;97.10;;;;;;5062235;28;20029;-66
2022/01/25 06:28:21;;;;;;;24.35;13.07;;;7.20;97.10;;;;;;5073130;28;20016;-65
2022/01/25 06:30:47;;;;;;;25.38;11.32;;;7.20;97.00;;;;;;5071285;28;20028;-66
2022/01/25 06:33:13;;;;;;;24.67;12.65;;;7.20;97.00;;;;;;5072345;28;20426;-66
2022/01/25 06:35:38;;;;;;;23.23;12.38;;;7.20;97.10;;;;;;5066453;28;20052;-66
2022/01/25 06:38:04;;;;;;;26.13;12.38;;;7.20;97.10;;;;;;5071998;28;20032;-66
2022/01/25 06:40:30;;;;;;;25.05;12.65;;;7.20;97.30;;;;;;5070899;28;20097;-66
2022/01/25 06:42:55;;;;;;;22.65;11.73;;;7.30;97.10;;;;;;5072450;28;20031;-66
2022/01/25 06:45:23;;;;;;;23.77;12.38;;;7.30;97.10;;;;;;5061088;28;20028;-67
2022/01/25 06:47:49;;;;;;;28.25;13.05;;;7.30;97.00;;;;;;5072559;28;20115;-67
2022/01/25 06:50:19;;;;;;;23.52;11.90;;;7.30;97.00;;;;;;5070791;28;20036;-65
2022/01/25 06:52:45;;;;;;;30.67;13.95;;;7.30;97.00;;;;;;5068582;28;20164;-67
2022/01/25 06:55:14;;;;;;;24.20;12.20;;;7.30;97.10;;;;;;5064020;28;20032;-66
2022/01/25 06:57:40;;;;;;;28.30;13.68;;;7.40;97.20;;;;;;5072159;28;20112;-66
2022/01/25 07:00:18;;;;;;;29.58;13.90;;;7.30;97.20;;;;;;5059805;28;20919;-66
2022/01/25 07:02:43;;;;;;;26.48;12.65;;;7.40;97.20;;;;;;5071968;28;20171;-66
2022/01/25 07:05:09;;;;;;;31.02;14.10;;;7.40;97.20;;;;;;5069494;28;20108;-66
2022/01/25 07:07:36;;;;;;;31.02;15.52;;;7.40;97.30;;;;;;5052582;28;20120;-66
2022/01/25 07:10:03;;;;;;;31.92;15.27;;;7.50;97.30;;;;;;5067049;28;20064;-66
2022/01/25 07:12:28;;;;;;;30.42;14.57;;;7.50;97.30;;;;;;5071068;28;20044;-66
2022/01/25 07:14:54;;;;;;;30.05;16.15;;;7.50;97.30;;;;;;5063607;28;20025;-65
2022/01/25 07:17:19;;;;;;;26.75;14.13;;;7.50;97.30;;;;;;5061086;28;20040;-64
2022/01/25 07:19:45;;;;;;;30.65;15.63;;;7.60;97.30;;;;;;5060386;28;20029;-64
2022/01/25 07:22:11;;;;;;;32.55;15.05;;;7.60;97.30;;;;;;5053781;28;20033;-64
2022/01/25 07:24:36;;;;;;;33.50;15.48;;;7.60;97.20;;;;;;5071252;28;20017;-64
2022/01/25 07:27:02;;;;;;;31.85;15.73;;;7.60;97.20;;;;;;5060377;28;20107;-64
2022/01/25 07:29:28;;;;;;;31.85;15.60;;;7.60;97.30;;;;;;5063138;28;20112;-64
2022/01/25 07:31:55;;;;;;;29.50;14.90;;;7.60;97.30;;;;;;5058339;28;20055;-64
2022/01/25 07:34:20;;;;;;;29.30;15.35;;;7.60;97.30;;;;;;5069148;28;20039;-65
2022/01/25 07:36:46;;;;;;;34.42;16.33;;;7.60;97.30;;;;;;5055420;28;20025;-65
2022/01/25 07:39:11;;;;;;;29.77;15.88;;;7.60;97.30;;;;;;5066469;28;20480;-65
2022/01/25 07:41:37;;;;;;;33.95;16.45;;;7.60;97.30;;;;;;5062297;28;20106;-64
2022/01/25 07:44:04;;;;;;;30.52;16.45;;;7.60;97.30;;;;;;5036575;28;20086;-64
2022/01/25 07:46:30;;;;;;;27.25;14.30;;;7.60;97.50;;;;;;5054343;28;20021;-65
2022/01/25 07:48:56;;;;;;;35.10;16.75;;;7.60;97.30;;;;;;5058702;28;20028;-64
2022/01/25 07:51:22;;;;;;;33.85;16.35;;;7.60;97.40;;;;;;5054777;28;20024;-65
2022/01/25 07:53:49;;;;;;;32.00;16.55;;;7.60;97.40;;;;;;5054135;28;20039;-64
2022/01/25 07:56:15;;;;;;;36.88;18.02;;;7.60;97.40;;;;;;5059804;28;20028;-64
2022/01/25 07:58:40;;;;;;;32.20;16.65;;;7.60;97.50;;;;;;5058243;28;20040;-65
2022/01/25 08:01:06;;;;;;;29.77;14.75;;;7.60;97.50;;;;;;5057127;28;20056;-65
2022/01/25 08:03:31;;;;;;;28.98;16.55;;;7.60;97.50;;;;;;5056474;28;20124;-65
2022/01/25 08:05:57;;;;;;;36.05;15.77;;;7.60;97.50;;;;;;5052123;28;20033;-65
2022/01/25 08:08:22;;;;;;;36.08;16.38;;;7.60;97.60;;;;;;5058815;28;20108;-65
2022/01/25 08:10:48;;;;;;;34.65;15.25;;;7.60;97.60;;;;;;5059923;28;20031;-65
2022/01/25 08:13:14;;;;;;;517.45;92.45;;;7.60;97.70;;;;;;5056790;28;20053;-65
2022/01/25 08:15:40;;;;;;;186.63;37.80;;;7.70;97.70;;;;;;5054401;28;20481;-65
2022/01/25 08:18:06;;;;;;;61.45;19.80;;;7.80;97.70;;;;;;5056876;28;20480;-65
2022/01/25 08:20:32;;;;;;;40.92;16.55;;;7.70;97.70;;;;;;5056584;28;20033;-65
2022/01/25 08:22:57;;;;;;;39.30;16.50;;;7.70;97.70;;;;;;5056898;28;20028;-64
2022/01/25 08:25:23;;;;;;;37.47;18.23;;;7.70;97.70;;;;;;5056507;28;20499;-65
2022/01/25 08:27:49;;;;;;;38.97;17.35;;;7.70;97.70;;;;;;5062041;28;20154;-64
2022/01/25 08:30:14;;;;;;;37.25;17.20;;;7.80;97.70;;;;;;5062461;28;20124;-65
2022/01/25 08:32:41;;;;;;;52.85;18.70;;;7.80;97.70;;;;;;5063420;28;20111;-65
2022/01/25 08:35:07;;;;;;;44.08;17.23;;;7.80;97.70;;;;;;5063559;28;20826;-65
2022/01/25 08:37:33;;;;;;;59.45;16.38;;;7.80;97.80;;;;;;5053444;28;20025;-65
2022/01/25 08:39:58;;;;;;;38.50;15.48;;;7.80;97.70;;;;;;5052581;28;20029;-65
2022/01/25 08:42:24;;;;;;;35.60;15.23;;;7.90;97.70;;;;;;5057399;28;20076;-65
2022/01/25 08:44:49;;;;;;;39.08;16.65;;;8.00;97.70;;;;;;5056971;28;20025;-65
2022/01/25 08:47:15;;;;;;;35.22;15.98;;;8.00;97.60;;;;;;5061766;28;20036;-65
2022/01/25 08:49:41;;;;;;;38.78;17.15;;;8.10;97.50;;;;;;5055395;28;20425;-64
2022/01/25 08:52:07;;;;;;;53.42;17.23;;;8.10;97.50;;;;;;5051198;28;20028;-64
2022/01/25 08:54:33;;;;;;;41.10;16.35;;;8.10;97.50;;;;;;5066945;28;20062;-65
2022/01/25 08:56:58;;;;;;;58.55;16.63;;;8.10;97.40;;;;;;5054090;28;20491;-65
2022/01/25 08:59:24;;;;;;;42.40;17.25;;;8.10;97.30;;;;;;5056269;28;20040;-64
2022/01/25 09:01:49;;;;;;;33.63;15.15;;;8.20;97.30;;;;;;5041881;28;20037;-64
2022/01/25 09:04:15;;;;;;;32.08;14.98;;;8.10;97.20;;;;;;5058935;28;20028;-66
2022/01/25 09:06:41;;;;;;;29.95;15.15;;;8.20;97.30;;;;;;5042877;28;20380;-64
2022/01/25 09:09:09;;;;;;;29.90;14.65;;;8.20;97.30;;;;;;5063512;28;20124;-64
2022/01/25 09:11:36;;;;;;;26.90;14.75;;;8.20;97.20;;;;;;5059592;28;20025;-64
2022/01/25 09:14:02;;;;;;;31.10;15.38;;;8.20;97.10;;;;;;5065607;28;20032;-64
2022/01/25 09:16:28;;;;;;;28.20;14.60;;;8.30;97.10;;;;;;5063714;28;20021;-66
2022/01/25 09:18:53;;;;;;;35.05;16.08;;;8.30;97.10;;;;;;5063345;28;20541;-66
2022/01/25 09:21:20;;;;;;;56.55;18.23;;;8.20;97.10;;;;;;5058731;28;20044;-66
2022/01/25 09:23:45;;;;;;;71.82;21.90;;;8.20;97.00;;;;;;5054788;28;20102;-66
2022/01/25 09:26:11;;;;;;;78.88;22.90;;;8.20;97.00;;;;;;5065823;28;20121;-66
2022/01/25 09:28:36;;;;;;;53.70;18.50;;;8.20;97.00;;;;;;5056280;28;20031;-65
2022/01/25 09:31:03;;;;;;;54.20;18.15;;;8.20;97.00;;;;;;5041910;28;20024;-67
2022/01/25 09:33:28;;;;;;;36.25;17.50;;;8.20;97.00;;;;;;5061213;28;20040;-67
2022/01/25 09:35:55;;;;;;;40.70;18.90;;;8.20;97.00;;;;;;5061403;28;20532;-66
2022/01/25 09:38:22;;;;;;;33.95;17.25;;;8.20;97.00;;;;;;5058449;28;20029;-66
2022/01/25 09:40:49;;;;;;;34.05;17.13;;;8.20;97.00;;;;;;5060893;28;20519;-65
2022/01/25 09:43:15;;;;;;;31.98;15.30;;;8.20;97.10;;;;;;5064583;28;20491;-65
2022/01/25 09:45:41;;;;;;;33.03;16.55;;;8.10;97.10;;;;;;5058075;28;20026;-65
2022/01/25 09:48:08;;;;;;;34.53;15.93;;;8.20;97.20;;;;;;5064290;28;20399;-65
2022/01/25 09:50:34;;;;;;;34.97;15.70;;;8.10;97.20;;;;;;5058262;28;20475;-65
2022/01/25 09:53:00;;;;;;;39.10;16.45;;;8.20;97.20;;;;;;5054582;28;20814;-65
2022/01/25 09:55:30;;;;;;;59.50;18.58;;;8.10;97.30;;;;;;5059768;28;20090;-65
2022/01/25 09:57:55;;;;;;;42.13;16.48;;;8.10;97.40;;;;;;5054555;28;20028;-65
2022/01/25 10:00:25;;;;;;;41.03;16.92;;;8.10;97.50;;;;;;5058426;28;20044;-65
2022/01/25 10:02:59;;;;;;;34.40;13.65;;;8.10;97.60;;;;;;5062326;28;20047;-65
2022/01/25 10:05:34;;;;;;;27.50;13.35;;;8.20;97.60;;;;;;5062141;28;20807;-65
2022/01/25 10:08:20;;;;;;;31.15;14.25;;;8.20;97.60;;;;;;5057454;28;20185;-64
2022/01/25 10:10:55;;;;;;;39.50;13.38;;;8.20;97.70;;;;;;5057459;28;20025;-64
2022/01/25 10:13:23;;;;;;;29.60;13.55;;;8.20;97.70;;;;;;5060812;28;20041;-64
2022/01/25 10:15:52;;;;;;;30.02;14.85;;;8.20;97.70;;;;;;5059231;28;20032;-65
2022/01/25 10:18:17;;;;;;;26.70;14.07;;;8.20;97.70;;;;;;5064462;28;20152;-65
2022/01/25 10:20:46;;;;;;;26.55;12.88;;;8.20;97.80;;;;;;5059652;28;20111;-65
2022/01/25 10:23:14;;;;;;;22.95;11.98;;;8.10;97.90;;;;;;5056402;28;20048;-65
2022/01/25 10:25:45;;;;;;;29.98;13.50;;;8.20;97.80;;;;;;5060681;28;20034;-66
2022/01/25 10:28:14;;;;;;;30.00;13.07;;;8.20;97.80;;;;;;5040358;28;20099;-65
2022/01/25 10:30:46;;;;;;;30.42;15.15;;;8.20;97.80;;;;;;5055618;28;20232;-65
2022/01/25 10:33:21;;;;;;;28.73;14.48;;;8.20;97.90;;;;;;5053713;28;20047;-64
2022/01/25 10:35:48;;;;;;;30.67;14.27;;;8.30;97.90;;;;;;5058482;28;20025;-64
2022/01/25 10:38:28;;;;;;;28.45;14.25;;;8.30;97.90;;;;;;5066436;28;20036;-65
2022/01/25 10:41:04;;;;;;;26.95;12.75;;;8.30;97.80;;;;;;5060522;28;23229;-65
2022/01/25 10:43:32;;;;;;;33.80;13.68;;;8.30;97.70;;;;;;5059186;28;20032;-65
2022/01/25 10:46:17;;;;;;;33.47;13.95;;;8.30;97.80;;;;;;5042061;28;20395;-65
2022/01/25 10:48:46;;;;;;;25.58;12.35;;;8.30;97.80;;;;;;5064591;28;20531;-65
2022/01/25 10:51:16;;;;;;;37.38;13.40;;;8.30;97.80;;;;;;5054869;28;20036;-65
2022/01/25 10:53:41;;;;;;;35.60;13.02;;;8.40;97.90;;;;;;5056852;28;20029;-65
2022/01/25 10:56:08;;;;;;;29.15;13.15;;;8.40;97.90;;;;;;5060304;28;20074;-64
2022/01/25 10:58:41;;;;;;;30.08;11.77;;;8.40;97.80;;;;;;5061043;28;20035;-65
2022/01/25 11:01:10;;;;;;;24.10;10.95;;;8.40;97.70;;;;;;5051360;28;20139;-64
2022/01/25 11:03:39;;;;;;;26.42;10.57;;;8.40;97.70;;;;;;5038846;28;20099;-65
2022/01/25 11:06:17;;;;;;;30.98;12.00;;;8.40;97.60;;;;;;5037918;28;20025;-65
2022/01/25 11:08:47;;;;;;;28.73;10.60;;;8.40;97.60;;;;;;5052216;28;20060;-65
2022/01/25 11:11:27;;;;;;;21.88;11.18;;;8.40;97.60;;;;;;5034533;28;20120;-65
2022/01/25 11:13:54;;;;;;;26.63;10.75;;;8.40;97.60;;;;;;5037920;28;20091;-65
2022/01/25 11:16:20;;;;;;;23.63;11.00;;;8.50;97.60;;;;;;5036604;28;20087;-65
2022/01/25 11:18:46;;;;;;;22.77;10.82;;;8.40;97.60;;;;;;5037053;28;20029;-65
2022/01/25 11:21:12;;;;;;;31.88;16.05;;;8.40;97.70;;;;;;5030314;28;20041;-65
2022/01/25 11:23:40;;;;;;;25.98;13.93;;;8.40;97.70;;;;;;5035539;28;20049;-65
2022/01/25 11:26:12;;;;;;;29.00;13.32;;;8.50;97.70;;;;;;5042252;28;20033;-65
2022/01/25 11:28:40;;;;;;;20.27;10.65;;;8.50;97.60;;;;;;5042401;28;20119;-65
2022/01/25 11:31:12;;;;;;;27.13;9.82;;;8.50;97.60;;;;;;5037099;28;20069;-65
2022/01/25 11:33:44;;;;;;;29.52;9.90;;;8.60;97.60;;;;;;5041688;28;20029;-65
2022/01/25 11:36:10;;;;;;;31.35;10.38;;;8.60;97.50;;;;;;5039329;28;20025;-65
2022/01/25 11:38:48;;;;;;;28.52;9.88;;;8.70;97.50;;;;;;5039186;28;20033;-64
2022/01/25 11:41:16;;;;;;;37.45;11.13;;;8.70;97.40;;;;;;5040084;28;20036;-66
2022/01/25 11:44:01;;;;;;;30.15;11.77;;;8.60;97.30;;;;;;5037236;28;20040;-65
2022/01/25 11:46:26;;;;;;;21.23;9.10;;;8.60;97.30;;;;;;5042692;28;20040;-66
2022/01/25 11:48:52;;;;;;;22.92;10.20;;;8.60;97.30;;;;;;5043906;28;20036;-65
2022/01/25 11:51:20;;;;;;;25.70;8.93;;;8.60;97.30;;;;;;5037331;28;20039;-64
2022/01/25 11:53:48;;;;;;;27.85;9.88;;;8.50;97.40;;;;;;5037409;28;20037;-65
2022/01/25 11:56:15;;;;;;;23.80;9.75;;;8.50;97.30;;;;;;5042875;28;20415;-65
2022/01/25 11:58:42;;;;;;;24.98;12.90;;;8.50;97.30;;;;;;5056288;28;20539;-65
2022/01/25 12:01:25;;;;;;;23.67;11.73;;;8.50;97.30;;;;;;5047723;28;20056;-65
2022/01/25 12:03:59;;;;;;;17.67;9.35;;;8.50;97.40;;;;;;5057538;28;20029;-64
2022/01/25 12:06:59;;;;;;;20.67;9.43;;;8.40;97.30;;;;;;5062998;28;20017;-64
2022/01/25 12:09:42;;;;;;;19.02;8.45;;;8.40;97.40;;;;;;5059940;28;20099;-65
2022/01/25 12:12:10;;;;;;;18.08;9.10;;;8.40;97.40;;;;;;5058878;28;20116;-65
2022/01/25 12:14:49;;;;;;;16.30;9.15;;;8.40;97.40;;;;;;5038043;28;20082;-65
2022/01/25 12:17:17;;;;;;;18.38;9.93;;;8.50;97.40;;;;;;5054540;28;20430;-64
2022/01/25 12:19:50;;;;;;;18.95;8.65;;;8.50;97.40;;;;;;5056533;28;20086;-65
2022/01/25 12:22:25;;;;;;;17.88;9.13;;;8.50;97.40;;;;;;5050813;28;20110;-64
2022/01/25 12:25:09;;;;;;;15.88;9.32;;;8.50;97.40;;;;;;5051327;28;20064;-65
2022/01/25 12:27:49;;;;;;;19.53;10.20;;;8.50;97.60;;;;;;5074430;28;20039;-65
2022/01/25 12:30:20;;;;;;;20.27;9.98;;;8.50;97.50;;;;;;5050978;28;20124;-65
2022/01/25 12:32:51;;;;;;;19.45;9.05;;;8.50;97.50;;;;;;5058269;28;20048;-65
2022/01/25 12:35:38;;;;;;;19.17;10.30;;;8.50;97.50;;;;;;5059935;28;20370;-65
2022/01/25 12:38:06;;;;;;;25.33;10.10;;;8.50;97.50;;;;;;5058190;28;20029;-65
2022/01/25 12:40:35;;;;;;;23.08;9.50;;;8.40;97.50;;;;;;5067556;28;20077;-65
2022/01/25 12:43:07;;;;;;;48.65;13.30;;;8.50;97.50;;;;;;5060789;28;20345;-65
2022/01/25 12:45:43;;;;;;;46.78;13.73;;;8.50;97.50;;;;;;5059190;28;20033;-65
2022/01/25 12:48:10;;;;;;;34.80;10.95;;;8.50;97.50;;;;;;5060306;28;20199;-65
2022/01/25 12:50:38;;;;;;;29.48;12.80;;;8.40;97.50;;;;;;5057729;28;20514;-65
2022/01/25 12:53:05;;;;;;;26.95;10.90;;;8.40;97.50;;;;;;5062497;28;20543;-65
2022/01/25 12:55:38;;;;;;;20.23;10.63;;;8.40;97.50;;;;;;5060811;28;20032;-64
2022/01/25 12:58:05;;;;;;;31.20;11.98;;;8.30;97.60;;;;;;5066244;28;20044;-64
2022/01/25 13:00:37;;;;;;;24.17;10.77;;;8.30;97.60;;;;;;5054592;28;20037;-64
2022/01/25 13:03:26;;;;;;;27.42;9.60;;;8.30;97.70;;;;;;5060498;28;20021;-64
2022/01/25 13:05:56;;;;;;;27.63;9.95;;;8.30;97.70;;;;;;5058940;28;20032;-65
2022/01/25 13:08:55;;;;;;;23.15;10.98;;;8.30;97.80;;;;;;5063391;28;20455;-65
2022/01/25 13:11:50;;;;;;;27.15;11.52;;;8.30;97.80;;;;;;5032714;28;20033;-65
2022/01/25 13:16:58;;;;;;;20.20;9.70;;;8.20;97.90;;;;;;5059266;28;20302;-64
2022/01/25 13:19:42;;;;;;;23.33;10.63;;;8.30;98.00;;;;;;5058560;28;20488;-65
2022/01/25 13:22:16;;;;;;;23.15;11.48;;;8.20;98.00;;;;;;5054453;28;20021;-65
2022/01/25 13:24:57;;;;;;;27.70;13.85;;;8.20;98.00;;;;;;5056555;28;20372;-65
2022/01/25 13:27:29;;;;;;;29.48;14.85;;;8.20;98.10;;;;;;5064238;28;20028;-64
2022/01/25 13:32:46;;;;;;;26.98;11.85;;;8.20;98.20;;;;;;5061175;28;20045;-63
2022/01/25 13:35:23;;;;;;;23.23;11.30;;;8.20;98.20;;;;;;5063116;28;20626;-64
2022/01/25 13:38:16;;;;;;;22.70;11.60;;;8.30;98.20;;;;;;5045627;28;20029;-64
2022/01/25 13:40:55;;;;;;;24.70;11.68;;;8.30;98.20;;;;;;5054992;28;20427;-65
2022/01/25 13:45:53;;;;;;;25.38;11.80;;;8.20;98.20;;;;;;5052818;28;20642;-65
2022/01/25 13:48:22;;;;;;;23.23;11.65;;;8.30;98.30;;;;;;5060642;28;20530;-66
2022/01/25 13:50:53;;;;;;;23.35;13.50;;;8.30;98.30;;;;;;5039741;28;20028;-67
2022/01/25 13:53:19;;;;;;;24.95;12.57;;;8.30;98.20;;;;;;5058860;28;20079;-65
2022/01/25 13:55:49;;;;;;;106.70;18.23;;;8.30;98.30;;;;;;5055695;28;20025;-66
2022/01/25 13:58:24;;;;;;;37.03;14.55;;;8.30;98.30;;;;;;5060134;28;20036;-65
2022/01/25 14:00:50;;;;;;;;;;;8.30;98.30;;;;;;5052548;28;20408;-65
2022/01/25 14:03:17;;;;;;;29.38;12.95;;;8.30;98.20;;;;;;5053540;28;19912;-65
2022/01/25 14:05:46;;;;;;;32.50;14.30;;;8.30;98.30;;;;;;5056761;28;20028;-66
2022/01/25 14:08:11;;;;;;;34.42;13.70;;;8.30;98.30;;;;;;5051647;28;20036;-65
2022/01/25 14:10:38;;;;;;;49.95;15.88;;;8.30;98.30;;;;;;5043178;28;20074;-65
2022/01/25 14:24:11;;;;;;;108.10;21.38;;;8.40;98.50;;;;;;5056999;28;20025;-66
2022/01/25 14:26:41;;;;;;;80.32;17.33;;;8.30;98.50;;;;;;5059583;28;20103;-64
2022/01/25 14:29:18;;;;;;;51.83;15.43;;;8.40;98.60;;;;;;5058148;28;20078;-65
2022/01/25 14:31:46;;;;;;;58.78;15.18;;;8.40;98.60;;;;;;5058063;28;20029;-65